createdAt,value
2023-02-25T00:01:21.757Z,100.00
2023-02-25T00:03:48.424Z,100.00
2023-02-25T00:06:15.164Z,100.00
2023-02-25T00:08:46.132Z,100.00
2023-02-25T00:11:14.661Z,100.00
2023-02-25T00:13:42.284Z,100.00
2023-02-25T00:16:10.315Z,100.00
2023-02-25T00:18:37.044Z,100.00
2023-02-25T00:21:09.491Z,100.00
2023-02-25T00:23:36.404Z,100.00
2023-02-25T00:26:07.016Z,100.00
2023-02-25T00:28:34.848Z,99.45
2023-02-25T00:31:09.509Z,100.00
2023-02-25T00:33:37.381Z,100.00
2023-02-25T00:36:08.580Z,100.00
2023-02-25T00:38:36.348Z,100.00
2023-02-25T00:41:15.070Z,100.00
2023-02-25T00:43:44.650Z,100.00
2023-02-25T00:46:11.762Z,100.00
2023-02-25T00:48:39.265Z,100.00
2023-02-25T00:51:11.588Z,100.00
2023-02-25T00:53:38.661Z,100.00
2023-02-25T00:56:07.751Z,100.00
2023-02-25T00:58:38.686Z,100.00
2023-02-25T01:01:06.803Z,100.00
2023-02-25T01:03:33.431Z,100.00
2023-02-25T01:06:00.265Z,100.00
2023-02-25T01:08:27.125Z,100.00
2023-02-25T01:10:53.717Z,100.00
2023-02-25T01:13:20.412Z,100.00
2023-02-25T01:15:47.048Z,100.00
2023-02-25T01:18:13.645Z,100.00
2023-02-25T01:20:40.479Z,99.25
2023-02-25T01:23:07.386Z,100.00
2023-02-25T01:25:34.025Z,100.00
2023-02-25T01:28:00.759Z,100.00
2023-02-25T01:30:27.397Z,100.00
2023-02-25T01:32:54.113Z,100.00
2023-02-25T01:35:20.774Z,100.00
2023-02-25T01:37:49.785Z,100.00
2023-02-25T01:40:17.917Z,100.00
2023-02-25T01:42:47.699Z,99.74
2023-02-25T01:45:32.707Z,100.00
2023-02-25T01:48:09.444Z,100.00
2023-02-25T01:50:43.642Z,100.00
2023-02-25T01:53:10.425Z,100.00
2023-02-25T01:55:40.129Z,100.00
2023-02-25T01:58:09.308Z,100.00
2023-02-25T02:00:36.705Z,100.00
2023-02-25T02:03:04.669Z,100.00
2023-02-25T02:05:46.607Z,100.00
2023-02-25T02:08:13.630Z,100.00
2023-02-25T02:10:40.240Z,100.00
2023-02-25T02:13:06.970Z,100.00
2023-02-25T02:15:41.094Z,99.72
2023-02-25T02:18:09.223Z,99.90
2023-02-25T02:21:18.014Z,99.94
2023-02-25T02:24:10.516Z,99.97
2023-02-25T02:26:57.816Z,99.60
2023-02-25T02:29:48.261Z,99.54
2023-02-25T02:32:57.538Z,98.04
2023-02-25T02:35:36.711Z,98.99
2023-02-25T02:38:26.666Z,98.13
2023-02-25T02:41:27.770Z,98.59
2023-02-25T02:44:02.239Z,100.00
2023-02-25T02:46:38.343Z,100.00
2023-02-25T02:49:49.518Z,100.00
2023-02-25T02:52:24.231Z,99.46
2023-02-25T02:54:56.985Z,99.22
2023-02-25T02:57:27.969Z,99.85
2023-02-25T03:00:12.623Z,99.28
2023-02-25T03:02:41.086Z,98.33
2023-02-25T03:05:12.386Z,99.30
2023-02-25T03:07:45.275Z,98.37
2023-02-25T03:10:18.123Z,99.68
2023-02-25T03:12:44.741Z,98.44
2023-02-25T03:15:11.568Z,99.00
2023-02-25T03:18:06.908Z,98.78
2023-02-25T03:20:42.146Z,97.92
2023-02-25T03:23:14.289Z,98.80
2023-02-25T03:25:59.567Z,97.41
2023-02-25T03:28:32.708Z,98.29
2023-02-25T03:31:07.761Z,97.81
2023-02-25T03:34:07.816Z,97.52
2023-02-25T03:36:40.042Z,97.43
2023-02-25T03:39:12.306Z,97.50
2023-02-25T03:41:44.670Z,99.60
2023-02-25T03:44:20.860Z,98.67
2023-02-25T03:46:48.380Z,97.79
2023-02-25T03:49:38.811Z,97.88
2023-02-25T03:52:13.768Z,98.27
2023-02-25T03:54:40.641Z,99.09
2023-02-25T03:57:07.253Z,98.46
2023-02-25T03:59:33.882Z,98.96
2023-02-25T04:02:01.339Z,99.11
2023-02-25T04:04:28.168Z,99.12
2023-02-25T04:06:54.865Z,99.28
2023-02-25T04:09:21.459Z,99.09
2023-02-25T04:11:49.147Z,100.00
2023-02-25T04:14:16.068Z,100.00
2023-02-25T04:16:42.874Z,99.64
2023-02-25T04:19:09.436Z,97.92
2023-02-25T04:21:37.277Z,97.95
2023-02-25T04:24:06.689Z,98.64
2023-02-25T04:26:34.649Z,98.57
2023-02-25T04:29:01.768Z,98.90
2023-02-25T04:31:28.535Z,98.89
2023-02-25T04:33:57.961Z,99.83
2023-02-25T04:36:35.991Z,99.59
2023-02-25T04:39:05.063Z,99.74
2023-02-25T04:41:33.712Z,99.04
2023-02-25T04:44:00.632Z,99.26
2023-02-25T04:46:27.370Z,98.99
2023-02-25T04:48:54.088Z,99.59
2023-02-25T04:51:21.260Z,99.60
2023-02-25T04:53:48.497Z,99.54
2023-02-25T04:56:15.948Z,99.79
2023-02-25T04:58:42.994Z,100.00
2023-02-25T05:01:10.724Z,99.69
2023-02-25T05:03:38.258Z,99.49
2023-02-25T05:06:06.060Z,100.00
2023-02-25T05:08:33.810Z,100.00
2023-02-25T05:11:01.003Z,99.65
2023-02-25T05:13:28.638Z,100.00
2023-02-25T05:16:11.349Z,100.00
2023-02-25T05:18:38.765Z,99.84
2023-02-25T05:21:09.926Z,99.54
2023-02-25T05:23:36.450Z,99.05
2023-02-25T05:26:03.224Z,99.13
2023-02-25T05:28:29.829Z,99.71
2023-02-25T05:30:56.854Z,99.02
2023-02-25T05:33:23.929Z,100.00
2023-02-25T05:35:51.004Z,99.38
2023-02-25T05:38:17.589Z,98.21
2023-02-25T05:40:44.224Z,98.23
2023-02-25T05:43:10.834Z,99.39
2023-02-25T05:45:37.430Z,97.92
2023-02-25T05:48:04.134Z,98.52
2023-02-25T05:50:34.467Z,99.14
2023-02-25T05:53:01.090Z,98.75
2023-02-25T05:55:27.709Z,100.00
2023-02-25T05:57:54.309Z,100.00
2023-02-25T06:00:21.533Z,100.00
2023-02-25T06:02:48.313Z,100.00
2023-02-25T06:05:14.922Z,99.88
2023-02-25T06:07:41.537Z,99.72
2023-02-25T06:10:08.972Z,99.64
2023-02-25T06:12:38.106Z,99.06
2023-02-25T06:15:05.098Z,99.36
2023-02-25T06:17:31.694Z,99.58
2023-02-25T06:19:58.483Z,100.00
2023-02-25T06:22:25.095Z,100.00
2023-02-25T06:24:51.676Z,100.00
2023-02-25T06:27:18.748Z,100.00
2023-02-25T06:29:47.765Z,100.00
2023-02-25T06:32:15.271Z,99.62
2023-02-25T06:34:41.920Z,98.98
2023-02-25T06:37:08.885Z,100.00
2023-02-25T06:39:35.493Z,99.48
2023-02-25T06:42:02.183Z,99.40
2023-02-25T06:44:29.538Z,99.94
2023-02-25T06:46:56.182Z,100.00
2023-02-25T06:49:23.641Z,100.00
2023-02-25T06:51:50.441Z,100.00
2023-02-25T06:54:17.761Z,100.00
2023-02-25T06:56:44.856Z,100.00
2023-02-25T06:59:11.459Z,100.00
2023-02-25T07:01:38.188Z,100.00
2023-02-25T07:04:05.127Z,100.00
2023-02-25T07:06:31.806Z,100.00
2023-02-25T07:08:58.457Z,100.00
2023-02-25T07:11:29.639Z,100.00
2023-02-25T07:13:56.820Z,100.00
2023-02-25T07:16:23.902Z,100.00
2023-02-25T07:18:50.982Z,99.60
2023-02-25T07:21:17.996Z,97.47
2023-02-25T07:23:44.953Z,98.30
2023-02-25T07:26:13.215Z,97.61
2023-02-25T07:28:40.304Z,97.80
2023-02-25T07:31:13.605Z,94.28
2023-02-25T07:33:41.807Z,94.46
2023-02-25T07:36:09.103Z,94.15
2023-02-25T07:38:35.895Z,95.00
2023-02-25T07:41:07.472Z,94.28
2023-02-25T07:43:34.109Z,94.47
2023-02-25T07:46:01.209Z,95.18
2023-02-25T07:48:28.186Z,93.29
2023-02-25T07:50:55.476Z,93.75
2023-02-25T07:53:22.699Z,93.08
2023-02-25T07:55:50.364Z,91.79
2023-02-25T07:58:17.075Z,92.70
2023-02-25T08:00:45.829Z,94.16
2023-02-25T08:03:12.532Z,94.78
2023-02-25T08:05:39.210Z,95.74
2023-02-25T08:08:06.148Z,95.32
2023-02-25T08:10:32.876Z,95.38
2023-02-25T08:12:59.508Z,96.09
2023-02-25T08:15:26.266Z,96.20
2023-02-25T08:17:55.397Z,95.33
2023-02-25T08:20:24.263Z,94.55
2023-02-25T08:22:51.156Z,96.02
2023-02-25T08:25:17.973Z,96.23
2023-02-25T08:27:44.691Z,97.28
2023-02-25T08:30:12.453Z,95.73
2023-02-25T08:32:39.587Z,95.45
2023-02-25T08:35:06.615Z,94.68
2023-02-25T08:37:33.593Z,94.25
2023-02-25T08:40:00.271Z,94.06
2023-02-25T08:42:27.380Z,92.92
2023-02-25T08:44:53.982Z,91.72
2023-02-25T08:47:20.609Z,90.44
2023-02-25T08:49:47.609Z,91.93
2023-02-25T08:52:14.897Z,91.51
2023-02-25T08:54:41.542Z,92.76
2023-02-25T08:57:08.171Z,88.99
2023-02-25T08:59:35.982Z,89.30
2023-02-25T09:02:07.445Z,89.65
2023-02-25T09:04:34.574Z,89.39
2023-02-25T09:07:02.194Z,90.00
2023-02-25T09:09:28.971Z,88.88
2023-02-25T09:11:55.862Z,89.09
2023-02-25T09:14:22.888Z,88.62
2023-02-25T09:16:49.594Z,91.21
2023-02-25T09:19:17.982Z,89.91
2023-02-25T09:21:48.378Z,90.05
2023-02-25T09:24:15.428Z,88.41
2023-02-25T09:26:42.058Z,88.48
2023-02-25T09:29:08.988Z,86.86
2023-02-25T09:31:37.527Z,86.50
2023-02-25T09:34:07.470Z,86.99
2023-02-25T09:36:34.566Z,87.72
2023-02-25T09:39:01.552Z,87.81
2023-02-25T09:42:07.347Z,86.13
2023-02-25T09:44:48.144Z,87.22
2023-02-25T09:47:23.288Z,86.19
2023-02-25T09:50:00.481Z,84.98
2023-02-25T09:52:42.967Z,84.57
2023-02-25T09:55:23.681Z,85.00
2023-02-25T09:58:16.574Z,83.55
2023-02-25T10:00:48.324Z,81.03
2023-02-25T10:03:24.220Z,82.49
2023-02-25T10:06:11.624Z,80.65
2023-02-25T10:08:54.934Z,79.65
2023-02-25T10:11:31.968Z,80.93
2023-02-25T10:14:25.332Z,81.55
2023-02-25T10:17:25.961Z,81.97
2023-02-25T10:20:27.471Z,81.55
2023-02-25T10:23:24.676Z,78.55
2023-02-25T10:25:59.746Z,80.07
2023-02-25T10:28:28.933Z,78.06
2023-02-25T10:31:05.574Z,77.08
2023-02-25T10:33:36.967Z,76.42
2023-02-25T10:36:14.980Z,76.79
2023-02-25T10:38:59.254Z,76.35
2023-02-25T10:41:27.014Z,76.62
2023-02-25T10:43:55.534Z,76.24
2023-02-25T10:46:41.790Z,74.03
2023-02-25T10:49:21.375Z,76.33
2023-02-25T10:52:14.112Z,75.64
2023-02-25T10:54:49.082Z,73.73
2023-02-25T10:57:26.322Z,73.50
2023-02-25T11:00:13.292Z,76.14
2023-02-25T11:02:43.996Z,71.47
2023-02-25T11:05:32.230Z,69.75
2023-02-25T11:07:58.867Z,71.34
2023-02-25T11:10:25.532Z,70.62
2023-02-25T11:12:54.618Z,68.76
2023-02-25T11:15:43.197Z,70.35
2023-02-25T11:18:29.526Z,66.86
2023-02-25T11:21:01.921Z,68.38
2023-02-25T11:23:49.302Z,68.30
2023-02-25T11:26:27.227Z,68.84
2023-02-25T11:28:55.402Z,67.15
2023-02-25T11:31:25.034Z,67.88
2023-02-25T11:34:01.297Z,69.33
2023-02-25T11:36:36.824Z,69.01
2023-02-25T11:39:24.903Z,68.78
2023-02-25T11:41:57.564Z,69.51
2023-02-25T11:44:30.829Z,70.38
2023-02-25T11:47:03.799Z,69.49
2023-02-25T11:49:41.205Z,69.79
2023-02-25T11:52:34.494Z,70.03
2023-02-25T11:55:19.681Z,70.42
2023-02-25T11:58:23.811Z,69.81
2023-02-25T12:01:03.175Z,69.72
2023-02-25T12:04:04.841Z,69.99
2023-02-25T12:07:24.149Z,69.07
2023-02-25T12:10:44.558Z,70.98
2023-02-25T12:13:17.133Z,70.22
2023-02-25T12:16:07.824Z,69.86
2023-02-25T12:19:07.999Z,70.39
2023-02-25T12:22:13.157Z,70.37
2023-02-25T12:46:26.601Z,67.47
2023-02-25T12:52:18.362Z,69.05
2023-02-25T12:55:09.621Z,68.64
2023-02-25T12:57:49.838Z,66.90
2023-02-25T13:01:05.917Z,67.49
2023-02-25T13:04:37.166Z,66.43
2023-02-25T13:07:26.616Z,66.47
2023-02-25T13:10:32.086Z,67.94
2023-02-25T13:13:43.963Z,68.61
2023-02-25T13:16:55.018Z,68.38
2023-02-25T13:20:03.496Z,67.12
2023-02-25T13:23:07.553Z,68.31
2023-02-25T13:26:24.813Z,69.03
2023-02-25T13:41:59.877Z,70.08
2023-02-25T13:48:27.124Z,71.55
2023-02-25T13:51:16.261Z,70.71
2023-02-25T13:54:14.501Z,69.75
2023-02-25T13:56:59.004Z,71.00
2023-02-25T13:59:57.991Z,72.40
2023-02-25T14:02:59.921Z,71.45
2023-02-25T14:06:14.856Z,71.19
2023-02-25T14:09:15.038Z,71.33
2023-02-25T14:12:12.012Z,70.54
2023-02-25T14:15:17.992Z,70.33
2023-02-25T14:18:15.579Z,69.48
2023-02-25T14:21:31.678Z,71.45
2023-02-25T14:24:32.043Z,72.40
2023-02-25T14:27:20.815Z,72.58
2023-02-25T14:30:27.835Z,72.24
2023-02-25T14:33:12.840Z,73.66
2023-02-25T14:36:16.535Z,73.09
2023-02-25T14:39:21.842Z,71.92
2023-02-25T14:42:39.532Z,72.60
2023-02-25T14:45:21.239Z,72.60
2023-02-25T14:48:06.059Z,73.13
2023-02-25T14:50:58.015Z,73.53
2023-02-25T14:54:06.677Z,74.11
2023-02-25T14:56:48.920Z,74.86
2023-02-25T15:00:05.214Z,73.06
2023-02-25T15:03:02.092Z,72.31
2023-02-25T15:05:55.522Z,71.35
2023-02-25T15:09:14.613Z,71.77
2023-02-25T15:12:05.927Z,72.26
2023-02-25T15:49:33.452Z,72.33
2023-02-25T15:52:04.317Z,72.80
2023-02-25T15:54:46.602Z,72.93
2023-02-25T15:57:34.637Z,72.79
2023-02-25T16:00:01.473Z,73.50
2023-02-25T16:02:52.928Z,72.81
2023-02-25T16:05:24.742Z,72.80
2023-02-25T16:08:03.226Z,74.14
2023-02-25T16:10:38.387Z,73.05
2023-02-25T16:13:05.077Z,73.58
2023-02-25T16:15:42.407Z,72.85
2023-02-25T16:18:45.432Z,73.18
2023-02-25T16:21:23.631Z,73.59
2023-02-25T16:23:51.070Z,73.00
2023-02-25T16:27:01.557Z,74.23
2023-02-25T16:30:10.056Z,74.33
2023-02-25T16:33:20.467Z,74.39
2023-02-25T16:36:11.164Z,74.18
2023-02-25T16:38:53.796Z,74.17
2023-02-25T16:41:23.994Z,74.68
2023-02-25T16:43:54.867Z,74.78
2023-02-25T16:46:28.080Z,74.51
2023-02-25T16:49:02.935Z,74.60
2023-02-25T16:51:34.466Z,74.87
2023-02-25T16:54:14.273Z,74.91
2023-02-25T16:56:43.097Z,75.34
2023-02-25T16:59:21.843Z,73.80
2023-02-25T17:01:59.490Z,73.71
2023-02-25T17:04:33.116Z,72.78
2023-02-25T17:07:22.303Z,74.39
2023-02-25T17:09:52.158Z,73.38
2023-02-25T17:12:30.355Z,73.58
2023-02-25T17:14:59.768Z,74.12
2023-02-25T17:17:33.159Z,73.95
2023-02-25T17:20:04.585Z,73.76
2023-02-25T17:22:32.782Z,73.78
2023-02-25T17:25:00.195Z,74.56
2023-02-25T17:27:28.522Z,74.46
2023-02-25T17:29:55.431Z,73.26
2023-02-25T17:32:28.289Z,73.77
2023-02-25T17:34:59.907Z,73.78
2023-02-25T17:37:29.390Z,73.62
2023-02-25T17:39:56.875Z,73.31
2023-02-25T17:42:38.962Z,73.42
2023-02-25T17:45:27.058Z,73.36
2023-02-25T17:47:53.796Z,73.89
2023-02-25T17:50:29.748Z,74.15
2023-02-25T17:52:58.368Z,74.31
2023-02-25T17:55:33.532Z,73.46
2023-02-25T17:58:01.932Z,75.46
2023-02-25T18:00:37.885Z,74.02
2023-02-25T18:03:20.044Z,75.80
2023-02-25T18:05:59.160Z,79.46
2023-02-25T18:08:30.179Z,83.14
2023-02-25T18:11:24.076Z,84.59
2023-02-25T18:13:51.081Z,87.57
2023-02-25T18:16:44.800Z,89.34
2023-02-25T18:19:38.628Z,88.94
2023-02-25T18:22:07.470Z,89.52
2023-02-25T18:24:37.657Z,89.85
2023-02-25T18:27:27.534Z,92.06
2023-02-25T18:29:57.854Z,93.68
2023-02-25T18:32:24.501Z,93.92
2023-02-25T18:34:51.115Z,93.71
2023-02-25T18:37:18.794Z,93.60
2023-02-25T18:39:48.800Z,93.53
2023-02-25T18:42:16.786Z,93.47
2023-02-25T18:44:44.950Z,94.82
2023-02-25T18:47:11.568Z,94.24
2023-02-25T18:49:38.215Z,95.36
2023-02-25T18:52:10.458Z,96.21
2023-02-25T18:54:37.093Z,95.52
2023-02-25T18:57:04.234Z,95.36
2023-02-25T18:59:30.839Z,96.02
2023-02-25T19:01:57.472Z,96.60
2023-02-25T19:04:24.282Z,96.19
2023-02-25T19:06:50.868Z,95.31
2023-02-25T19:09:17.517Z,95.75
2023-02-25T19:11:44.173Z,95.53
2023-02-25T19:14:17.621Z,95.71
2023-02-25T19:16:44.252Z,93.96
2023-02-25T19:19:10.893Z,93.83
2023-02-25T19:21:37.512Z,93.98
2023-02-25T19:24:04.576Z,93.28
2023-02-25T19:26:31.214Z,92.97
2023-02-25T19:28:57.829Z,92.83
2023-02-25T19:31:24.479Z,92.08
2023-02-25T19:33:51.116Z,91.39
2023-02-25T19:36:17.739Z,91.82
2023-02-25T19:38:44.500Z,91.00
2023-02-25T19:41:13.806Z,91.09
2023-02-25T19:43:40.476Z,91.46
2023-02-25T19:46:08.667Z,90.99
2023-02-25T19:48:35.376Z,91.43
2023-02-25T19:51:06.610Z,92.59
2023-02-25T19:53:33.872Z,93.28
2023-02-25T19:56:02.977Z,93.79
2023-02-25T19:58:31.899Z,93.04
2023-02-25T20:01:06.991Z,94.23
2023-02-25T20:03:33.964Z,94.86
2023-02-25T20:06:22.236Z,94.45
2023-02-25T20:08:53.711Z,94.92
2023-02-25T20:11:20.360Z,96.22
2023-02-25T20:13:47.156Z,95.72
2023-02-25T20:16:13.852Z,95.40
2023-02-25T20:18:43.437Z,95.92
2023-02-25T20:21:10.050Z,95.42
2023-02-25T20:23:38.326Z,96.42
2023-02-25T20:26:09.562Z,96.53
2023-02-25T20:28:36.740Z,96.46
2023-02-25T20:31:09.742Z,96.97
2023-02-25T20:33:37.492Z,96.51
2023-02-25T20:36:17.985Z,97.62
2023-02-25T20:39:15.833Z,97.65
2023-02-25T20:41:44.799Z,98.52
2023-02-25T20:44:12.704Z,98.95
2023-02-25T20:46:40.929Z,98.65
2023-02-25T20:49:12.036Z,98.84
2023-02-25T20:51:39.113Z,98.71
2023-02-25T20:54:06.244Z,98.65
2023-02-25T20:56:34.593Z,98.88
2023-02-25T20:59:01.601Z,98.64
2023-02-25T21:01:28.560Z,98.31
2023-02-25T21:03:55.751Z,97.80
2023-02-25T21:06:24.674Z,99.04
2023-02-25T21:08:52.171Z,99.26
2023-02-25T21:11:19.938Z,99.16
2023-02-25T21:13:47.576Z,98.49
2023-02-25T21:16:15.937Z,98.51
2023-02-25T21:18:44.219Z,99.21
2023-02-25T21:21:13.342Z,99.15
2023-02-25T21:23:41.079Z,99.68
2023-02-25T21:26:09.279Z,99.30
2023-02-25T21:28:36.217Z,100.00
2023-02-25T21:31:08.902Z,100.00
2023-02-25T21:33:37.198Z,99.41
2023-02-25T21:36:04.866Z,98.79
2023-02-25T21:38:31.713Z,99.04
2023-02-25T21:41:06.245Z,98.45
2023-02-25T21:43:33.213Z,99.04
2023-02-25T21:46:01.882Z,100.00
2023-02-25T21:48:30.760Z,99.40
2023-02-25T21:50:58.018Z,99.08
2023-02-25T21:53:27.407Z,98.96
2023-02-25T21:55:55.019Z,98.43
2023-02-25T21:58:22.221Z,98.34
2023-02-25T22:00:49.016Z,97.83
2023-02-25T22:03:15.765Z,98.32
2023-02-25T22:05:46.573Z,98.57
2023-02-25T22:08:14.110Z,98.84
2023-02-25T22:10:40.898Z,99.19
2023-02-25T22:13:08.467Z,99.61
2023-02-25T22:15:35.559Z,100.00
2023-02-25T22:18:02.227Z,99.44
2023-02-25T22:20:29.047Z,100.00
2023-02-25T22:22:57.993Z,100.00
2023-02-25T22:25:24.866Z,100.00
2023-02-25T22:27:52.184Z,100.00
2023-02-25T22:30:21.520Z,100.00
2023-02-25T22:32:48.334Z,100.00
2023-02-25T22:35:15.455Z,100.00
2023-02-25T22:37:42.124Z,100.00
2023-02-25T22:40:09.604Z,100.00
2023-02-25T22:42:36.245Z,100.00
2023-02-25T22:45:03.020Z,100.00
2023-02-25T22:47:29.663Z,100.00
2023-02-25T22:49:56.327Z,100.00
2023-02-25T22:52:23.045Z,99.98
2023-02-25T22:54:49.668Z,98.83
2023-02-25T22:57:16.330Z,98.31
2023-02-25T22:59:42.981Z,98.49
2023-02-25T23:02:09.596Z,98.46
2023-02-25T23:04:36.577Z,98.81
2023-02-25T23:07:03.213Z,97.86
2023-02-25T23:09:29.843Z,97.52
2023-02-25T23:11:56.608Z,96.66
2023-02-25T23:14:24.013Z,96.06
2023-02-25T23:16:51.335Z,95.91
2023-02-25T23:19:18.655Z,96.19
2023-02-25T23:21:45.801Z,96.39
2023-02-25T23:24:18.624Z,96.10
2023-02-25T23:26:47.761Z,96.18
2023-02-25T23:29:14.497Z,96.81
2023-02-25T23:31:46.934Z,95.89
2023-02-25T23:34:24.280Z,97.33
2023-02-25T23:36:54.073Z,97.20
2023-02-25T23:39:20.711Z,96.86
2023-02-25T23:44:15.667Z,96.31
2023-02-25T23:46:43.335Z,95.83
2023-02-25T23:49:13.058Z,96.45
2023-02-25T23:51:43.562Z,96.80
2023-02-25T23:54:14.289Z,95.94
2023-02-25T23:56:41.251Z,96.68
2023-02-25T23:59:08.858Z,97.14
